RCSSRCNN

Guest
Details From RCSS - Sungshan
To RCNN - Tainan
Flight Number -
Tags Generated
Created
Modified
Stats Distance 146 nm / 271 km
Max Altitude 0 ft / 0 m
Waypoints 2
Social Downloads 1
Likes 0
Share VATSIM

Download

Looking for another format? Having issues loading an existing format? Contact us
Advertisement - Login to hide

Notes

Generated

Route

RCSS RCNN

ID Type Via Altitude Latitude Longitude Leg Dist Tot Dist Heading (true) Name
O RCSS APT - 0 ft / 0 m 25.07005˚ 121.53962˚ - 0 nm - -
O RCNN APT - 0 ft / 0 m 22.96406˚ 120.20372˚ 146 nm 146 nm 210° / 210° -

Altitude Profile

Advertisement - Login to hide

RCSS

Details ICAO RCSS (TSA)
Name Sungshan
Region Republic of China (Taiwan)
Timezone Asia/Taipei (UTC+8.0)
Stats Elevation 18 ft / 5 m (AMSL)
Location 25.069586° 121.552570°
Runways 1
Magnetic Variation 4.518° W

METAR

RCSS 211600Z 10009KT 9999 FEW020 26/24 Q1010 NOSIG RMK A2983

Decode

TAF

TAF RCSS 211100Z 2112/2212 09010KT 9999 FEW015 BKN032 BECMG 2112/2114 09005KT BECMG 2200/2202 29005KT BECMG 2207/2209 09005KT

Decode

Departure Runways

ID Width Length Bearing (true) Bearing (mag) Surface Threshold Offset Overrun Length
10 197 ft / 60 m 8,566 ft / 2,611 m 92.26° 96.78° Asphalt 0 ft / 0 m 197 ft / 60 m
28 197 ft / 60 m 8,566 ft / 2,611 m 272.27° 276.79° Asphalt 0 ft / 0 m 525 ft / 160 m

RCNN

Details ICAO RCNN (TNN)
Name TAINAN
Region Republic of China (Taiwan)
Timezone Asia/Taipei (UTC+8.0)
Stats Elevation 63 ft / 19 m (AMSL)
Location 22.950403° 120.205792°
Runways 2
Magnetic Variation 3.882° W

METAR

RCNN 211600Z 00000KT 9999 FEW014 SCT080 25/21 Q1009 RMK A2982

Decode

TAF

TAF RCNN 211100Z 2112/2212 30006KT 9999 FEW012 SCT200 TX32/2206Z TN23/2120Z TEMPO 2121/2124 FEW012 BKN060 BECMG 2201/2204 27010KT

Decode

Destination Runways

ID Width Length Bearing (true) Bearing (mag) Surface Threshold Offset Overrun Length
18L 148 ft / 45 m 10,078 ft / 3,072 m 178.73° 182.61° Concrete 0 ft / 0 m 1,083 ft / 330 m
18R 148 ft / 45 m 10,018 ft / 3,054 m 178.61° 182.49° Concrete 0 ft / 0 m 502 ft / 153 m
36L 148 ft / 45 m 10,018 ft / 3,054 m 358.61° 2.49° Concrete 0 ft / 0 m 755 ft / 230 m
36R 148 ft / 45 m 10,078 ft / 3,072 m 358.73° 2.61° Concrete 0 ft / 0 m 755 ft / 230 m

Approach Navaids

Runway Type Ident Frequency Range Bearing (true) Bearing (mag) Slope Elevation
36R Localiser ITNN 110.10 MHz 18 nm / 33 km 358.83° 2.71° - 63 ft / 19 m (AMSL)
36R Glidescope ITNN 110.10 MHz 10 nm / 19 km 358.73° 2.61° 3.00° 63 ft / 19 m (AMSL)
36R DME ITNN 110.10 MHz 18 nm / 33 km - - - 63 ft / 19 m (AMSL)